Terminal Aerodrome Forecast
Issued by NWS Bismarck, ND

Home | Current Version | Previous Version | Graphics & Text | Print | Product List | Glossary On
Versions: 1 2 3 4 5 6 7 8 9 10 11 12 13 14 15 16 17 18 19 20 21
000
FTUS43 KBIS 271730
TAFISN
TAF
KISN 271730Z 2718/2818 14009KT P6SM FEW080 SCT200
     FM272000 13010KT P6SM VCTS BKN070CB
      TEMPO 2721/2724 VRB15G25KT 4SM -TSRA BKN050CB
     FM280200 VRB04KT 3SM -SHRA BKN025 OVC050
     FM280600 13005KT 2SM -SHRA BR BKN010
     FM281500 27007KT P6SM BKN025=

USA.gov is the U.S. government's official web portal to all federal, state and local government web resources and services.